createdAt,value
2018-12-03T00:00:10.199Z,850.36
2018-12-03T00:01:10.068Z,850.39
2018-12-03T00:02:09.943Z,850.39
2018-12-03T00:03:09.810Z,850.39
2018-12-03T00:04:09.678Z,850.37
2018-12-03T00:05:09.551Z,850.38
2018-12-03T00:06:09.421Z,850.35
2018-12-03T00:07:09.292Z,850.37
2018-12-03T00:08:09.158Z,850.37
2018-12-03T00:09:09.030Z,850.34
2018-12-03T00:10:08.900Z,850.31
2018-12-03T00:11:08.768Z,850.30
2018-12-03T00:12:08.636Z,850.25
2018-12-03T00:13:08.509Z,850.26
2018-12-03T00:14:08.377Z,850.27
2018-12-03T00:15:08.248Z,850.31
2018-12-03T00:16:08.117Z,850.33
2018-12-03T00:17:07.987Z,850.34
2018-12-03T00:18:07.858Z,850.32
2018-12-03T00:19:07.728Z,850.29
2018-12-03T00:20:07.598Z,850.34
2018-12-03T00:21:07.469Z,850.36
2018-12-03T00:22:07.337Z,850.34
2018-12-03T00:23:07.211Z,850.31
2018-12-03T00:24:07.076Z,850.32
2018-12-03T00:25:06.947Z,850.36
2018-12-03T00:26:06.816Z,850.34
2018-12-03T00:27:06.687Z,850.31
2018-12-03T00:28:06.557Z,850.32
2018-12-03T00:29:06.427Z,850.32
2018-12-03T00:30:06.296Z,850.30
2018-12-03T00:31:06.167Z,850.26
2018-12-03T00:32:06.035Z,850.28
2018-12-03T00:33:05.910Z,850.21
2018-12-03T00:34:05.777Z,850.29
2018-12-03T00:35:05.647Z,850.27
2018-12-03T00:36:05.518Z,850.26
2018-12-03T00:37:05.387Z,850.25
2018-12-03T00:38:05.256Z,850.19
2018-12-03T00:39:05.126Z,850.20
2018-12-03T00:40:04.995Z,850.16
2018-12-03T00:41:04.867Z,850.18
2018-12-03T00:42:04.738Z,850.18
2018-12-03T00:43:04.609Z,850.15
2018-12-03T00:44:04.478Z,850.16
2018-12-03T00:45:04.346Z,850.14
2018-12-03T00:46:04.216Z,850.12
2018-12-03T00:47:04.085Z,850.09
2018-12-03T00:48:03.958Z,850.05
2018-12-03T00:49:03.828Z,850.11
2018-12-03T00:50:03.698Z,850.13
2018-12-03T00:51:03.567Z,850.13
2018-12-03T00:52:03.435Z,850.12
2018-12-03T00:53:03.310Z,850.08
2018-12-03T00:54:03.175Z,850.02
2018-12-03T00:55:03.046Z,849.97
2018-12-03T00:56:02.916Z,850.00
2018-12-03T00:57:02.787Z,850.01
2018-12-03T00:58:02.656Z,849.97
2018-12-03T00:59:02.527Z,849.97
2018-12-03T01:00:02.400Z,849.98
2018-12-03T01:01:02.265Z,850.00
2018-12-03T01:02:02.133Z,849.96
2018-12-03T01:03:02.012Z,849.98
2018-12-03T01:04:01.873Z,849.96
2018-12-03T01:05:01.747Z,850.01
2018-12-03T01:06:01.615Z,849.97
2018-12-03T01:07:01.484Z,849.96
2018-12-03T01:08:01.358Z,849.99
2018-12-03T01:09:01.226Z,850.01
2018-12-03T01:10:01.093Z,850.00
2018-12-03T01:11:00.963Z,849.94
2018-12-03T01:12:00.832Z,849.96
2018-12-03T01:13:00.707Z,849.95
2018-12-03T01:14:00.571Z,849.93
2018-12-03T01:15:00.442Z,849.95
2018-12-03T01:16:00.310Z,849.97
2018-12-03T01:17:00.201Z,849.98
2018-12-03T01:18:00.051Z,849.97
2018-12-03T01:18:59.921Z,850.02
2018-12-03T01:19:59.788Z,849.98
2018-12-03T01:20:59.661Z,849.98
2018-12-03T01:21:59.527Z,850.03
2018-12-03T01:22:59.400Z,850.08
2018-12-03T01:23:59.267Z,850.07
2018-12-03T01:24:59.140Z,850.11
2018-12-03T01:25:59.010Z,850.07
2018-12-03T01:26:58.879Z,850.10
2018-12-03T01:27:58.749Z,850.12
2018-12-03T01:28:58.617Z,850.14
2018-12-03T01:29:58.488Z,850.15
2018-12-03T01:30:58.367Z,850.18
2018-12-03T01:31:58.227Z,850.14
2018-12-03T01:32:58.096Z,850.22
2018-12-03T01:33:57.966Z,850.23
2018-12-03T01:34:57.836Z,850.26
2018-12-03T01:35:57.707Z,850.23
2018-12-03T01:36:57.577Z,850.25
2018-12-03T01:37:57.446Z,850.30
2018-12-03T01:38:57.317Z,850.33
2018-12-03T01:39:57.184Z,850.34
2018-12-03T01:40:57.056Z,850.38
2018-12-03T01:41:56.925Z,850.39
2018-12-03T01:42:56.796Z,850.40
2018-12-03T01:43:56.667Z,850.36
2018-12-03T01:44:56.535Z,850.43
2018-12-03T01:45:56.405Z,850.39
2018-12-03T01:46:56.280Z,850.40
2018-12-03T01:47:56.146Z,850.39
2018-12-03T01:48:56.015Z,850.38
2018-12-03T01:49:55.886Z,850.37
2018-12-03T01:50:55.756Z,850.38
2018-12-03T01:51:55.625Z,850.36
2018-12-03T01:52:55.494Z,850.38
2018-12-03T01:53:55.363Z,850.37
2018-12-03T01:54:55.235Z,850.39
2018-12-03T01:55:55.102Z,850.41
2018-12-03T01:56:54.975Z,850.36
2018-12-03T01:57:54.844Z,850.37
2018-12-03T01:58:54.715Z,850.40
2018-12-03T01:59:54.584Z,850.34
2018-12-03T02:00:54.456Z,850.32
2018-12-03T02:01:54.323Z,850.34
2018-12-03T02:02:54.194Z,850.35
2018-12-03T02:03:54.062Z,850.36
2018-12-03T02:04:53.935Z,850.34
2018-12-03T02:05:53.803Z,850.30
2018-12-03T02:06:53.675Z,850.33
2018-12-03T02:07:53.542Z,850.29
2018-12-03T02:08:53.411Z,850.30
2018-12-03T02:09:53.281Z,850.33
2018-12-03T02:10:53.154Z,850.34
2018-12-03T02:11:53.025Z,850.36
2018-12-03T02:12:52.893Z,850.34
2018-12-03T02:13:52.762Z,850.35
2018-12-03T02:14:52.632Z,850.32
2018-12-03T02:15:52.500Z,850.32
2018-12-03T02:16:52.373Z,850.29
2018-12-03T02:17:52.241Z,850.30
2018-12-03T02:18:52.112Z,850.31
2018-12-03T02:19:51.979Z,850.35
2018-12-03T02:20:51.851Z,850.33
2018-12-03T02:21:51.727Z,850.36
2018-12-03T02:22:51.592Z,850.35
2018-12-03T02:23:51.459Z,850.36
2018-12-03T02:24:51.329Z,850.39
2018-12-03T02:25:51.205Z,850.41
2018-12-03T02:26:51.069Z,850.41
2018-12-03T02:27:50.937Z,850.38
2018-12-03T02:28:50.809Z,850.39
2018-12-03T02:29:50.678Z,850.36
2018-12-03T02:30:50.556Z,850.35
2018-12-03T02:31:50.417Z,850.40
2018-12-03T02:32:50.288Z,850.36
2018-12-03T02:33:50.157Z,850.37
2018-12-03T02:34:50.028Z,850.31
2018-12-03T02:35:49.900Z,850.33
2018-12-03T02:36:49.767Z,850.30
2018-12-03T02:37:49.637Z,850.31
2018-12-03T02:38:49.510Z,850.35
2018-12-03T02:39:49.376Z,850.40
2018-12-03T02:40:49.253Z,850.39
2018-12-03T02:41:49.117Z,850.40
2018-12-03T02:42:48.987Z,850.39
2018-12-03T02:43:48.857Z,850.39
2018-12-03T02:44:48.734Z,850.42
2018-12-03T02:45:48.602Z,850.43
2018-12-03T02:46:48.465Z,850.48
2018-12-03T02:47:48.339Z,850.41
2018-12-03T02:48:48.204Z,850.31
2018-12-03T02:49:48.076Z,850.27
2018-12-03T02:50:47.949Z,850.22
2018-12-03T02:51:47.815Z,850.23
2018-12-03T02:52:47.686Z,850.16
2018-12-03T02:53:47.555Z,850.14
2018-12-03T02:54:47.427Z,850.17
2018-12-03T02:55:47.293Z,850.17
2018-12-03T02:56:47.171Z,850.19
2018-12-03T02:57:47.033Z,850.14
2018-12-03T02:58:46.904Z,850.11
2018-12-03T02:59:46.776Z,850.07
2018-12-03T03:00:46.644Z,850.06
2018-12-03T03:01:46.515Z,850.09
2018-12-03T03:02:46.420Z,850.12
2018-12-03T03:03:46.254Z,850.10
2018-12-03T03:04:46.123Z,850.12
2018-12-03T03:05:45.993Z,850.11
2018-12-03T03:06:45.861Z,850.08
2018-12-03T03:07:45.729Z,850.11
2018-12-03T03:08:45.601Z,850.15
2018-12-03T03:09:45.469Z,850.18
2018-12-03T03:10:45.356Z,850.25
2018-12-03T03:11:45.209Z,850.26
2018-12-03T03:12:45.080Z,850.25
2018-12-03T03:13:44.949Z,850.23
2018-12-03T03:14:44.820Z,850.26
2018-12-03T03:15:44.687Z,850.29
2018-12-03T03:16:44.557Z,850.31
2018-12-03T03:17:44.426Z,850.33
2018-12-03T03:18:44.296Z,850.38
2018-12-03T03:19:44.166Z,850.42
2018-12-03T03:20:44.034Z,850.40
2018-12-03T03:21:43.904Z,850.42
2018-12-03T03:22:43.776Z,850.42
2018-12-03T03:23:43.643Z,850.44
2018-12-03T03:24:43.515Z,850.45
2018-12-03T03:25:43.385Z,850.47
2018-12-03T03:26:43.253Z,850.53
2018-12-03T03:27:43.124Z,850.55
2018-12-03T03:28:42.991Z,850.58
2018-12-03T03:29:42.866Z,850.55
2018-12-03T03:30:42.733Z,850.60
2018-12-03T03:31:42.601Z,850.63
2018-12-03T03:32:42.472Z,850.62
2018-12-03T03:33:42.343Z,850.70
2018-12-03T03:34:42.216Z,850.77
2018-12-03T03:35:42.078Z,850.80
2018-12-03T03:36:41.950Z,850.87
2018-12-03T03:37:41.824Z,850.86
2018-12-03T03:38:41.688Z,850.91
2018-12-03T03:39:41.557Z,850.96
2018-12-03T03:40:41.430Z,851.06
2018-12-03T03:41:41.299Z,851.12
2018-12-03T03:42:41.167Z,851.18
2018-12-03T03:43:41.034Z,851.23
2018-12-03T03:44:40.905Z,851.25
2018-12-03T03:45:40.775Z,851.29
2018-12-03T03:46:40.645Z,851.24
2018-12-03T03:47:40.513Z,851.22
2018-12-03T03:48:40.385Z,851.21
2018-12-03T03:49:40.256Z,851.19
2018-12-03T03:50:40.133Z,851.23
2018-12-03T03:51:39.992Z,851.28
2018-12-03T03:52:39.862Z,851.29
2018-12-03T03:53:39.732Z,851.30
2018-12-03T03:54:39.605Z,851.24
2018-12-03T03:55:39.471Z,851.27
2018-12-03T03:56:39.339Z,851.17
2018-12-03T03:57:39.210Z,851.16
2018-12-03T03:58:39.080Z,851.12
2018-12-03T03:59:38.949Z,851.11
2018-12-03T04:00:38.818Z,851.07
2018-12-03T04:01:38.687Z,851.00
2018-12-03T04:02:38.559Z,850.97
2018-12-03T04:03:38.426Z,850.97
2018-12-03T04:04:38.298Z,850.94
2018-12-03T04:05:38.166Z,850.92
2018-12-03T04:06:38.046Z,850.90
2018-12-03T04:07:37.906Z,850.85
2018-12-03T04:08:37.777Z,850.84
2018-12-03T04:09:37.645Z,850.87
2018-12-03T04:10:37.517Z,850.85
2018-12-03T04:11:37.383Z,850.80
2018-12-03T04:12:37.259Z,850.81
2018-12-03T04:13:37.126Z,850.83
2018-12-03T04:14:36.994Z,850.84
2018-12-03T04:15:36.863Z,850.87
2018-12-03T04:16:36.739Z,850.88
2018-12-03T04:17:36.603Z,850.87
2018-12-03T04:18:36.473Z,850.86
2018-12-03T04:19:36.343Z,850.85
2018-12-03T04:20:36.216Z,850.81
2018-12-03T04:21:36.083Z,850.79
2018-12-03T04:22:35.952Z,850.76
2018-12-03T04:23:35.877Z,850.75
2018-12-03T04:24:35.690Z,850.75
2018-12-03T04:25:35.566Z,850.69
2018-12-03T04:26:35.435Z,850.66
2018-12-03T04:27:35.299Z,850.62
2018-12-03T04:28:35.171Z,850.59
2018-12-03T04:29:35.046Z,850.61
2018-12-03T04:30:34.911Z,850.64
2018-12-03T04:31:34.780Z,850.68
2018-12-03T04:32:34.651Z,850.67
2018-12-03T04:33:34.521Z,850.65
2018-12-03T04:34:34.391Z,850.66
2018-12-03T04:35:34.259Z,850.64
2018-12-03T04:36:34.132Z,850.62
2018-12-03T04:37:34.000Z,850.62
2018-12-03T04:38:33.869Z,850.67
2018-12-03T04:39:33.738Z,850.68
2018-12-03T04:40:33.608Z,850.67
2018-12-03T04:41:33.478Z,850.64
2018-12-03T04:42:33.348Z,850.57
2018-12-03T04:43:33.219Z,850.53
2018-12-03T04:44:33.122Z,850.47
2018-12-03T04:45:32.956Z,850.45
2018-12-03T04:46:32.828Z,850.44
2018-12-03T04:47:32.698Z,850.48
2018-12-03T04:48:32.573Z,850.51
2018-12-03T04:49:32.438Z,850.52
2018-12-03T04:50:32.310Z,850.53
2018-12-03T04:51:32.177Z,850.47
2018-12-03T04:52:32.049Z,850.42
2018-12-03T04:53:31.925Z,850.39
2018-12-03T04:54:31.787Z,850.36
2018-12-03T04:55:31.655Z,850.32
2018-12-03T04:56:31.525Z,850.34
2018-12-03T04:57:31.395Z,850.37
2018-12-03T04:58:31.263Z,850.35
2018-12-03T04:59:31.135Z,850.36
2018-12-03T05:00:31.001Z,850.40
2018-12-03T05:01:30.871Z,850.38
2018-12-03T05:02:30.739Z,850.38
2018-12-03T05:03:30.611Z,850.38
2018-12-03T05:04:30.479Z,850.32
2018-12-03T05:05:30.349Z,850.30
2018-12-03T05:06:30.324Z,850.35
2018-12-03T05:07:30.087Z,850.38
2018-12-03T05:08:29.955Z,850.34
2018-12-03T05:09:29.827Z,850.38
2018-12-03T05:10:29.697Z,850.34
2018-12-03T05:11:29.563Z,850.38
2018-12-03T05:12:29.500Z,850.41
2018-12-03T05:13:29.309Z,850.49
2018-12-03T05:14:29.175Z,850.51
2018-12-03T05:15:29.044Z,850.49
2018-12-03T05:16:28.911Z,850.49
2018-12-03T05:17:28.782Z,850.56
2018-12-03T05:18:28.650Z,850.56
2018-12-03T05:19:28.519Z,850.56
2018-12-03T05:20:28.386Z,850.54
2018-12-03T05:21:28.256Z,850.53
2018-12-03T05:22:28.125Z,850.48
2018-12-03T05:23:27.998Z,850.51
2018-12-03T05:24:27.863Z,850.56
2018-12-03T05:25:27.735Z,850.59
2018-12-03T05:26:27.601Z,850.62
2018-12-03T05:27:27.468Z,850.61
2018-12-03T05:28:27.341Z,850.61
2018-12-03T05:29:27.210Z,850.63
2018-12-03T05:30:27.078Z,850.67
2018-12-03T05:31:27.021Z,850.66
2018-12-03T05:32:26.862Z,850.63
2018-12-03T05:33:26.704Z,850.63
2018-12-03T05:34:26.552Z,850.58
2018-12-03T05:35:26.422Z,850.58
2018-12-03T05:36:26.290Z,850.60
2018-12-03T05:37:26.163Z,850.61
2018-12-03T05:38:26.027Z,850.59
2018-12-03T05:39:25.897Z,850.55
2018-12-03T05:40:25.772Z,850.53
2018-12-03T05:41:25.958Z,850.52
2018-12-03T05:42:25.508Z,850.53
2018-12-03T05:43:25.375Z,850.56
2018-12-03T05:44:25.241Z,850.60
2018-12-03T05:45:25.159Z,850.64
2018-12-03T05:46:24.981Z,850.69
2018-12-03T05:47:25.100Z,850.72
2018-12-03T05:48:24.721Z,850.74
2018-12-03T05:49:24.596Z,850.75
2018-12-03T05:50:24.458Z,850.78
2018-12-03T05:51:24.325Z,850.84
2018-12-03T05:52:24.195Z,850.85
2018-12-03T05:53:24.066Z,850.90
2018-12-03T05:54:23.933Z,850.91
2018-12-03T05:55:23.802Z,850.96
2018-12-03T05:56:23.672Z,850.96
2018-12-03T05:57:23.542Z,850.99
2018-12-03T05:58:23.410Z,851.01
2018-12-03T05:59:23.280Z,851.03
2018-12-03T06:00:23.153Z,851.04
2018-12-03T06:01:23.019Z,851.03
2018-12-03T06:02:22.888Z,851.05
2018-12-03T06:03:22.755Z,850.98
2018-12-03T06:04:22.627Z,850.97
2018-12-03T06:05:22.496Z,850.92
2018-12-03T06:06:22.365Z,850.89
2018-12-03T06:07:22.231Z,850.85
2018-12-03T06:08:22.101Z,850.82
2018-12-03T06:09:21.973Z,850.85
2018-12-03T06:10:21.841Z,850.83
2018-12-03T06:11:21.709Z,850.86
2018-12-03T06:12:21.580Z,850.91
2018-12-03T06:13:21.448Z,850.97
2018-12-03T06:14:21.317Z,850.99
2018-12-03T06:15:21.187Z,851.00
2018-12-03T06:16:21.056Z,851.00
2018-12-03T06:17:21.404Z,850.96
2018-12-03T06:18:20.795Z,851.01
2018-12-03T06:19:20.662Z,851.01
2018-12-03T06:20:20.533Z,851.04
2018-12-03T06:21:20.403Z,851.05
2018-12-03T06:22:20.270Z,851.10
2018-12-03T06:23:20.138Z,851.06
2018-12-03T06:24:20.010Z,851.03
2018-12-03T06:25:19.878Z,851.04
2018-12-03T06:26:19.747Z,850.97
2018-12-03T06:27:19.617Z,851.01
2018-12-03T06:28:19.486Z,851.02
2018-12-03T06:29:19.356Z,851.03
2018-12-03T06:30:19.224Z,851.06
2018-12-03T06:31:19.097Z,851.09
2018-12-03T06:32:18.965Z,851.14
2018-12-03T06:33:18.835Z,851.14
2018-12-03T06:34:19.099Z,851.17
2018-12-03T06:35:18.571Z,851.18
2018-12-03T06:36:18.439Z,851.18
2018-12-03T06:37:18.312Z,851.21
2018-12-03T06:38:18.182Z,851.21
2018-12-03T06:39:18.046Z,851.20
2018-12-03T06:40:17.916Z,851.18
2018-12-03T06:41:17.791Z,851.17
2018-12-03T06:42:17.655Z,851.16
2018-12-03T06:43:17.523Z,851.20
2018-12-03T06:44:17.393Z,851.22
2018-12-03T06:45:17.262Z,851.25
2018-12-03T06:46:17.131Z,851.27
2018-12-03T06:47:16.997Z,851.31
2018-12-03T06:48:16.868Z,851.29
2018-12-03T06:49:16.737Z,851.32
2018-12-03T06:50:16.606Z,851.33
2018-12-03T06:51:16.482Z,851.34
2018-12-03T06:52:16.345Z,851.34
2018-12-03T06:53:16.216Z,851.32
2018-12-03T06:54:16.082Z,851.35
2018-12-03T06:55:15.953Z,851.35
2018-12-03T06:56:15.820Z,851.39
2018-12-03T06:57:15.698Z,851.39
2018-12-03T06:58:15.559Z,851.35
2018-12-03T06:59:15.432Z,851.33
2018-12-03T07:00:15.297Z,851.31
2018-12-03T07:01:15.167Z,851.37
2018-12-03T07:02:15.038Z,851.42
2018-12-03T07:03:14.905Z,851.43
2018-12-03T07:04:14.773Z,851.43
2018-12-03T07:05:14.644Z,851.41
2018-12-03T07:06:14.515Z,851.40
2018-12-03T07:07:14.382Z,851.39
2018-12-03T07:08:14.252Z,851.44
2018-12-03T07:09:14.122Z,851.49
2018-12-03T07:10:13.992Z,851.51
2018-12-03T07:11:13.860Z,851.51
2018-12-03T07:12:13.730Z,851.52
2018-12-03T07:13:13.599Z,851.49
2018-12-03T07:14:13.469Z,851.46
2018-12-03T07:15:13.337Z,851.48
2018-12-03T07:16:13.207Z,851.50
2018-12-03T07:17:13.079Z,851.49
2018-12-03T07:18:12.947Z,851.48
2018-12-03T07:19:12.816Z,851.48
2018-12-03T07:20:12.687Z,851.50
2018-12-03T07:21:12.559Z,851.49
2018-12-03T07:22:12.427Z,851.52
2018-12-03T07:23:12.295Z,851.52
2018-12-03T07:24:12.172Z,851.52
2018-12-03T07:25:12.035Z,851.54
2018-12-03T07:26:11.905Z,851.55
2018-12-03T07:27:11.774Z,851.50
2018-12-03T07:28:11.648Z,851.54
2018-12-03T07:29:11.514Z,851.48
2018-12-03T07:30:11.385Z,851.44
2018-12-03T07:31:11.253Z,851.46
2018-12-03T07:32:11.124Z,851.44
2018-12-03T07:33:10.992Z,851.44
2018-12-03T07:34:10.868Z,851.44
2018-12-03T07:35:10.733Z,851.42
2018-12-03T07:36:10.603Z,851.44
2018-12-03T07:37:10.481Z,851.44
2018-12-03T07:38:10.344Z,851.42
2018-12-03T07:39:10.212Z,851.44
2018-12-03T07:40:10.082Z,851.49
2018-12-03T07:41:09.952Z,851.46
2018-12-03T07:42:09.822Z,851.50
2018-12-03T07:43:09.693Z,851.50
2018-12-03T07:44:09.562Z,851.48
2018-12-03T07:45:09.430Z,851.51
2018-12-03T07:46:09.303Z,851.52
2018-12-03T07:47:09.170Z,851.49
2018-12-03T07:48:09.039Z,851.52
2018-12-03T07:49:08.912Z,851.47
2018-12-03T07:50:08.782Z,851.51
2018-12-03T07:51:08.651Z,851.49
2018-12-03T07:52:08.521Z,851.48
2018-12-03T07:53:08.395Z,851.48
2018-12-03T07:54:08.260Z,851.51
2018-12-03T07:55:08.131Z,851.49
2018-12-03T07:56:08.003Z,851.52
2018-12-03T07:57:07.870Z,851.52
2018-12-03T07:58:07.743Z,851.52
2018-12-03T07:59:07.610Z,851.51
2018-12-03T08:00:07.480Z,851.53
2018-12-03T08:01:07.350Z,851.54
2018-12-03T08:02:07.222Z,851.51
2018-12-03T08:03:07.089Z,851.55
2018-12-03T08:04:06.963Z,851.55
2018-12-03T08:05:06.830Z,851.59
2018-12-03T08:06:06.699Z,851.58
2018-12-03T08:07:06.570Z,851.56
2018-12-03T08:08:06.442Z,851.55
2018-12-03T08:09:06.312Z,851.50
2018-12-03T08:10:06.181Z,851.54
2018-12-03T08:11:06.051Z,851.52
2018-12-03T08:12:05.920Z,851.56
2018-12-03T08:13:05.792Z,851.54
2018-12-03T08:14:05.661Z,851.55
2018-12-03T08:15:05.530Z,851.54
2018-12-03T08:16:05.400Z,851.55
2018-12-03T08:17:05.270Z,851.56
2018-12-03T08:18:05.144Z,851.53
2018-12-03T08:19:05.010Z,851.51
2018-12-03T08:20:04.882Z,851.52
2018-12-03T08:21:04.753Z,851.50
2018-12-03T08:22:04.624Z,851.51
2018-12-03T08:23:04.490Z,851.50
2018-12-03T08:24:04.362Z,851.50
2018-12-03T08:25:04.233Z,851.47
2018-12-03T08:26:04.103Z,851.50
2018-12-03T08:27:03.974Z,851.47
2018-12-03T08:28:03.852Z,851.48
2018-12-03T08:29:03.715Z,851.53
2018-12-03T08:30:03.584Z,851.52
2018-12-03T08:31:03.460Z,851.52
2018-12-03T08:32:03.327Z,851.45
2018-12-03T08:33:03.198Z,851.45
2018-12-03T08:34:03.068Z,851.42
2018-12-03T08:35:02.938Z,851.42
2018-12-03T08:36:02.811Z,851.43
2018-12-03T08:37:02.680Z,851.41
2018-12-03T08:38:03.525Z,851.38
2018-12-03T08:39:02.424Z,851.31
2018-12-03T08:40:02.291Z,851.27
2018-12-03T08:41:02.161Z,851.29
2018-12-03T08:42:02.032Z,851.32
2018-12-03T08:43:01.903Z,851.36
2018-12-03T08:44:01.774Z,851.32
2018-12-03T08:45:01.643Z,851.33
2018-12-03T08:46:01.516Z,851.35
2018-12-03T08:47:01.383Z,851.34
2018-12-03T08:48:01.255Z,851.34
2018-12-03T08:49:01.127Z,851.37
2018-12-03T08:50:01.000Z,851.36
2018-12-03T08:51:00.872Z,851.37
2018-12-03T08:52:00.738Z,851.34
2018-12-03T08:53:00.608Z,851.28
2018-12-03T08:54:00.479Z,851.33
2018-12-03T08:55:00.350Z,851.42
2018-12-03T08:56:00.225Z,851.41
2018-12-03T08:57:00.092Z,851.44
2018-12-03T08:57:59.962Z,851.47
2018-12-03T08:58:59.833Z,851.47
2018-12-03T08:59:59.704Z,851.51
2018-12-03T09:00:59.575Z,851.48
2018-12-03T09:01:59.447Z,851.48
2018-12-03T09:02:59.316Z,851.34
2018-12-03T09:03:59.187Z,851.29
2018-12-03T09:04:59.059Z,851.29
2018-12-03T09:05:58.953Z,851.24
2018-12-03T09:06:58.800Z,851.25
2018-12-03T09:07:58.672Z,851.28
2018-12-03T09:08:58.544Z,851.35
2018-12-03T09:09:58.413Z,851.39
2018-12-03T09:10:58.286Z,851.34
2018-12-03T09:11:58.164Z,851.38
2018-12-03T09:12:58.027Z,851.37
2018-12-03T09:13:57.899Z,851.38
2018-12-03T09:14:57.767Z,851.33
2018-12-03T09:15:57.639Z,851.35
2018-12-03T09:17:02.299Z,851.33
2018-12-03T09:17:57.381Z,851.32
2018-12-03T09:18:57.255Z,851.26
2018-12-03T09:19:57.123Z,851.28
2018-12-03T09:20:56.994Z,851.28
2018-12-03T09:21:56.865Z,851.27
2018-12-03T09:22:56.735Z,851.26
2018-12-03T09:23:56.608Z,851.25
2018-12-03T09:24:56.478Z,851.28
2018-12-03T09:25:56.350Z,851.23
2018-12-03T09:26:56.220Z,851.23
2018-12-03T09:27:56.091Z,851.25
2018-12-03T09:28:55.962Z,851.25
2018-12-03T09:29:55.834Z,851.26
2018-12-03T09:30:55.704Z,851.26
2018-12-03T09:31:55.575Z,851.30
2018-12-03T09:32:55.447Z,851.26
2018-12-03T09:33:55.318Z,851.27
2018-12-03T09:34:55.188Z,851.28
2018-12-03T09:35:55.061Z,851.30
2018-12-03T09:36:54.932Z,851.32
2018-12-03T09:37:54.807Z,851.38
2018-12-03T09:38:54.675Z,851.39
2018-12-03T09:39:54.550Z,851.38
2018-12-03T09:40:54.419Z,851.36
2018-12-03T09:41:54.289Z,851.39
2018-12-03T09:42:54.161Z,851.36
2018-12-03T09:43:54.031Z,851.41
2018-12-03T09:44:53.905Z,851.44
2018-12-03T09:45:53.778Z,851.42
2018-12-03T09:46:53.647Z,851.50
2018-12-03T09:47:54.429Z,851.48
2018-12-03T09:48:53.390Z,851.47
2018-12-03T09:49:53.265Z,851.46
2018-12-03T09:50:53.135Z,851.40
2018-12-03T09:51:53.007Z,851.45
2018-12-03T09:52:52.880Z,851.45
2018-12-03T09:53:52.753Z,851.44
2018-12-03T09:54:52.625Z,851.51
2018-12-03T09:55:52.497Z,851.51
2018-12-03T09:56:52.370Z,851.49
2018-12-03T09:57:52.243Z,851.54
2018-12-03T09:58:52.114Z,851.53
2018-12-03T09:59:51.986Z,851.54
2018-12-03T10:00:51.864Z,851.58
2018-12-03T10:01:51.731Z,851.57
2018-12-03T10:02:51.617Z,851.57
2018-12-03T10:03:51.479Z,851.56
2018-12-03T10:04:51.351Z,851.54
2018-12-03T10:05:51.227Z,851.51
2018-12-03T10:06:51.099Z,851.48
2018-12-03T10:07:50.972Z,851.48
2018-12-03T10:08:50.845Z,851.47
2018-12-03T10:09:50.716Z,851.52
2018-12-03T10:10:50.588Z,851.56
2018-12-03T10:11:50.463Z,851.58
2018-12-03T10:12:50.377Z,851.60
2018-12-03T10:13:50.219Z,851.49
2018-12-03T10:14:50.081Z,851.52
2018-12-03T10:15:49.952Z,851.52
2018-12-03T10:16:49.829Z,851.51
2018-12-03T10:17:49.700Z,851.49
2018-12-03T10:18:49.571Z,851.44
2018-12-03T10:19:49.445Z,851.44
2018-12-03T10:20:49.319Z,851.47
2018-12-03T10:21:49.210Z,851.44
2018-12-03T10:22:49.065Z,851.39
2018-12-03T10:23:48.952Z,851.32
2018-12-03T10:24:48.814Z,851.28
2018-12-03T10:25:48.683Z,851.21
2018-12-03T10:26:48.555Z,851.12
2018-12-03T10:27:48.431Z,851.08
2018-12-03T10:28:48.304Z,851.05
2018-12-03T10:29:48.175Z,851.10
2018-12-03T10:30:48.049Z,851.07
2018-12-03T10:31:47.924Z,851.11
2018-12-03T10:32:47.794Z,851.10
2018-12-03T10:33:47.670Z,851.09
2018-12-03T10:34:47.542Z,851.14
2018-12-03T10:35:47.416Z,851.14
2018-12-03T10:36:47.293Z,851.13
2018-12-03T10:37:47.162Z,851.14
2018-12-03T10:38:47.037Z,851.12
2018-12-03T10:39:46.910Z,851.15
2018-12-03T10:40:46.784Z,851.15
2018-12-03T10:41:46.658Z,851.14
2018-12-03T10:42:46.534Z,851.11
2018-12-03T10:43:46.403Z,851.08
2018-12-03T10:44:46.278Z,851.04
2018-12-03T10:45:46.153Z,851.00
2018-12-03T10:46:46.025Z,850.99
2018-12-03T10:47:45.900Z,850.93
2018-12-03T10:48:45.773Z,850.92
2018-12-03T10:49:45.647Z,850.89
2018-12-03T10:50:45.519Z,850.87
2018-12-03T10:51:45.396Z,850.89
2018-12-03T10:52:45.267Z,850.85
2018-12-03T10:53:45.142Z,850.84
2018-12-03T10:54:45.013Z,850.77
2018-12-03T10:55:44.892Z,850.77
2018-12-03T10:56:44.762Z,850.74
2018-12-03T10:57:44.634Z,850.68
2018-12-03T10:58:44.508Z,850.69
2018-12-03T10:59:44.382Z,850.66
2018-12-03T11:00:44.258Z,850.64
2018-12-03T11:01:44.131Z,850.65
2018-12-03T11:02:44.003Z,850.65
2018-12-03T11:03:43.879Z,850.63
2018-12-03T11:04:43.753Z,850.63
2018-12-03T11:05:43.629Z,850.52
2018-12-03T11:06:43.501Z,850.51
2018-12-03T11:07:43.377Z,850.50
2018-12-03T11:08:43.262Z,850.53
2018-12-03T11:09:43.151Z,850.50
2018-12-03T11:10:42.999Z,850.49
2018-12-03T11:11:42.874Z,850.48
2018-12-03T11:12:42.751Z,850.45
2018-12-03T11:13:42.625Z,850.44
2018-12-03T11:14:42.500Z,850.45
2018-12-03T11:15:42.374Z,850.42
2018-12-03T11:16:42.249Z,850.42
2018-12-03T11:17:42.123Z,850.39
2018-12-03T11:18:41.996Z,850.38
2018-12-03T11:19:41.873Z,850.36
2018-12-03T11:20:41.748Z,850.38
2018-12-03T11:21:41.624Z,850.41
2018-12-03T11:22:41.497Z,850.42
2018-12-03T11:23:41.373Z,850.40
2018-12-03T11:24:41.254Z,850.43
2018-12-03T11:25:41.120Z,850.37
2018-12-03T11:26:40.998Z,850.34
2018-12-03T11:27:40.871Z,850.26
2018-12-03T11:28:40.745Z,850.26
2018-12-03T11:29:40.619Z,850.26
2018-12-03T11:30:40.497Z,850.29
2018-12-03T11:31:40.369Z,850.29
2018-12-03T11:32:40.244Z,850.35
2018-12-03T11:33:40.117Z,850.29
2018-12-03T11:34:39.991Z,850.27
2018-12-03T11:35:39.870Z,850.26
2018-12-03T11:36:39.742Z,850.26
2018-12-03T11:37:39.615Z,850.29
2018-12-03T11:38:39.491Z,850.28
2018-12-03T11:39:39.365Z,850.26
2018-12-03T11:40:39.243Z,850.25
2018-12-03T11:41:39.114Z,850.24
2018-12-03T11:42:38.989Z,850.26
2018-12-03T11:43:38.863Z,850.29
2018-12-03T11:44:38.738Z,850.28
2018-12-03T11:45:38.612Z,850.31
2018-12-03T11:46:38.486Z,850.30
2018-12-03T11:47:38.362Z,850.32
2018-12-03T11:48:38.236Z,850.29
2018-12-03T11:49:38.111Z,850.32
2018-12-03T11:50:38.008Z,850.27
2018-12-03T11:51:37.860Z,850.26
2018-12-03T11:52:37.735Z,850.23
2018-12-03T11:53:37.611Z,850.18
2018-12-03T11:54:37.484Z,850.18
2018-12-03T11:55:37.358Z,850.16
2018-12-03T11:56:37.230Z,850.17
2018-12-03T11:57:37.106Z,850.16
2018-12-03T11:58:36.979Z,850.16
2018-12-03T11:59:36.856Z,850.14
2018-12-03T12:00:36.734Z,850.13
2018-12-03T12:01:36.606Z,850.08
2018-12-03T12:02:36.479Z,850.05
2018-12-03T12:03:36.352Z,850.05
2018-12-03T12:04:36.226Z,850.04
2018-12-03T12:05:36.102Z,850.08
2018-12-03T12:06:35.974Z,850.05
2018-12-03T12:07:35.868Z,850.07
2018-12-03T12:08:35.726Z,850.06
2018-12-03T12:09:35.601Z,850.07
2018-12-03T12:10:35.473Z,850.05
2018-12-03T12:11:35.349Z,850.03
2018-12-03T12:12:35.221Z,850.02
2018-12-03T12:13:35.098Z,850.00
2018-12-03T12:14:34.971Z,849.98
2018-12-03T12:15:34.845Z,849.94
2018-12-03T12:16:34.719Z,849.95
2018-12-03T12:17:34.594Z,849.93
2018-12-03T12:18:34.468Z,849.94
2018-12-03T12:19:34.344Z,849.96
2018-12-03T12:20:34.216Z,849.91
2018-12-03T12:21:34.092Z,849.93
2018-12-03T12:22:33.964Z,849.90
2018-12-03T12:23:33.838Z,849.86
2018-12-03T12:24:33.716Z,849.86
2018-12-03T12:25:33.588Z,849.79
2018-12-03T12:26:33.459Z,849.78